createdAt,value
2024-04-18T00:00:02.081Z,9.90
2024-04-18T00:01:06.338Z,9.90
2024-04-18T00:02:08.590Z,9.30
2024-04-18T00:03:10.963Z,10.50
2024-04-18T00:04:13.249Z,8.00
2024-04-18T00:05:15.557Z,8.90
2024-04-18T00:06:17.898Z,7.80
2024-04-18T00:07:20.200Z,8.30
2024-04-18T00:08:24.311Z,9.30
2024-04-18T00:09:26.443Z,10.80
2024-04-18T00:10:28.659Z,9.70
2024-04-18T00:11:30.995Z,9.40
2024-04-18T00:12:33.052Z,9.90
2024-04-18T00:13:37.678Z,13.00
2024-04-18T00:14:39.952Z,15.10
2024-04-18T00:15:54.456Z,16.30
2024-04-18T00:16:58.685Z,15.80
2024-04-18T00:18:01.193Z,17.20
2024-04-18T00:19:03.564Z,15.00
2024-04-18T00:20:06.466Z,15.40
2024-04-18T00:21:08.893Z,10.64
2024-04-18T00:22:13.156Z,13.70
2024-04-18T00:23:15.443Z,14.00
2024-04-18T00:24:17.687Z,12.60
2024-04-18T00:25:32.550Z,12.50
2024-04-18T00:26:34.763Z,12.50
2024-04-18T00:27:37.033Z,10.10
2024-04-18T00:28:39.301Z,9.70
2024-04-18T00:29:43.635Z,10.30
2024-04-18T00:30:45.985Z,9.40
2024-04-18T00:31:48.193Z,9.00
2024-04-18T00:32:52.483Z,8.30
2024-04-18T00:34:12.750Z,8.40
2024-04-18T00:35:21.200Z,7.40
2024-04-18T00:36:23.647Z,7.60
2024-04-18T00:37:25.976Z,7.10
2024-04-18T00:38:37.088Z,9.10
2024-04-18T00:39:39.602Z,7.40
2024-04-18T00:40:45.651Z,11.40
2024-04-18T00:41:53.468Z,8.30
2024-04-18T00:42:59.430Z,10.10
2024-04-18T00:44:04.342Z,8.90
2024-04-18T00:45:09.480Z,10.20
2024-04-18T00:46:20.890Z,9.60
2024-04-18T00:47:25.259Z,9.30
2024-04-18T00:48:43.106Z,7.90
2024-04-18T00:49:45.715Z,8.10
2024-04-18T00:50:49.974Z,8.10
2024-04-18T00:51:55.502Z,8.10
2024-04-18T00:52:58.242Z,7.70
2024-04-18T00:54:01.193Z,8.10
2024-04-18T00:55:23.280Z,8.00
2024-04-18T00:56:27.810Z,8.50
2024-04-18T00:57:33.031Z,7.40
2024-04-18T00:58:37.327Z,9.10
2024-04-18T00:59:42.749Z,8.80
2024-04-18T01:00:51.174Z,6.80
2024-04-18T01:02:12.331Z,8.70
2024-04-18T01:03:14.749Z,7.30
2024-04-18T01:04:17.214Z,8.20
2024-04-18T01:05:21.728Z,7.30
2024-04-18T01:06:24.174Z,8.80
2024-04-18T01:07:44.788Z,8.10
2024-04-18T01:08:59.292Z,9.30
2024-04-18T01:10:07.815Z,8.10
2024-04-18T01:11:10.182Z,9.50
2024-04-18T01:12:12.626Z,8.40
2024-04-18T01:13:14.885Z,9.90
2024-04-18T01:14:35.661Z,8.30
2024-04-18T01:15:37.944Z,7.20
2024-04-18T01:16:40.289Z,7.00
2024-04-18T01:17:42.677Z,8.40
2024-04-18T01:18:44.961Z,8.70
2024-04-18T01:19:50.390Z,8.20
2024-04-18T01:20:52.664Z,7.30
2024-04-18T01:21:57.515Z,7.20
2024-04-18T01:22:59.960Z,7.70
2024-04-18T01:24:18.549Z,6.70
2024-04-18T01:25:22.577Z,8.40
2024-04-18T01:26:24.825Z,8.40
2024-04-18T01:27:28.326Z,7.70
2024-04-18T01:28:30.637Z,8.90
2024-04-18T01:29:35.970Z,7.70
2024-04-18T01:30:41.949Z,7.70
2024-04-18T01:31:46.013Z,8.50
2024-04-18T01:32:48.240Z,6.60
2024-04-18T01:33:50.459Z,8.90
2024-04-18T01:34:52.609Z,9.40
2024-04-18T01:35:55.102Z,7.90
2024-04-18T01:36:57.167Z,9.10
2024-04-18T01:38:05.624Z,7.60
2024-04-18T01:39:09.606Z,7.70
2024-04-18T01:40:11.936Z,7.70
2024-04-18T01:41:14.127Z,9.00
2024-04-18T01:42:23.879Z,7.70
2024-04-18T01:43:26.210Z,8.50
2024-04-18T01:44:36.215Z,9.50
2024-04-18T01:45:57.031Z,9.40
2024-04-18T01:46:59.424Z,9.50
2024-04-18T01:48:07.929Z,9.20
2024-04-18T01:49:12.124Z,8.80
2024-04-18T01:50:29.317Z,9.40
2024-04-18T01:51:31.545Z,9.70
2024-04-18T01:52:34.001Z,10.40
2024-04-18T01:53:39.453Z,9.00
2024-04-18T01:54:43.508Z,9.20
2024-04-18T01:55:45.875Z,10.20
2024-04-18T01:56:49.902Z,10.00
2024-04-18T01:57:54.156Z,9.90
2024-04-18T01:59:01.226Z,9.70
2024-04-18T02:00:04.157Z,10.30
2024-04-18T02:01:08.496Z,10.10
2024-04-18T02:02:11.043Z,12.60
2024-04-18T02:03:13.574Z,12.70
2024-04-18T02:04:16.521Z,10.40
2024-04-18T02:05:18.967Z,11.73
2024-04-18T02:06:21.182Z,12.30
2024-04-18T02:07:23.480Z,13.50
2024-04-18T02:08:27.722Z,16.30
2024-04-18T02:09:29.944Z,14.50
2024-04-18T02:10:32.506Z,18.20
2024-04-18T02:11:42.481Z,15.60
2024-04-18T02:12:47.894Z,14.50
2024-04-18T02:13:50.051Z,13.20
2024-04-18T02:14:52.298Z,14.30
2024-04-18T02:15:54.476Z,15.40
2024-04-18T02:16:56.668Z,17.40
2024-04-18T02:17:58.968Z,17.00
2024-04-18T02:19:03.170Z,19.00
2024-04-18T02:20:07.628Z,20.70
2024-04-18T02:21:15.626Z,18.80
2024-04-18T02:22:26.983Z,15.40
2024-04-18T02:23:47.879Z,18.70
2024-04-18T02:25:09.405Z,17.40
2024-04-18T02:26:11.692Z,16.70
2024-04-18T02:27:14.012Z,14.60
2024-04-18T02:28:16.157Z,21.20
2024-04-18T02:29:18.806Z,20.20
2024-04-18T02:30:25.345Z,18.50
2024-04-18T02:31:28.910Z,22.20
2024-04-18T02:32:31.827Z,19.70
2024-04-18T02:33:34.232Z,16.90
2024-04-18T02:34:38.489Z,12.60
2024-04-18T02:35:48.568Z,14.70
2024-04-18T02:37:09.095Z,13.80
2024-04-18T02:38:11.311Z,12.30
2024-04-18T02:39:13.853Z,14.00
2024-04-18T02:40:16.207Z,11.90
2024-04-18T02:41:20.537Z,11.20
2024-04-18T02:42:26.264Z,11.80
2024-04-18T02:43:34.357Z,12.90
2024-04-18T02:44:36.847Z,11.80
2024-04-18T02:45:39.255Z,12.50
2024-04-18T02:47:00.084Z,13.80
2024-04-18T02:48:02.328Z,12.60
2024-04-18T02:49:19.716Z,11.40
2024-04-18T02:50:31.120Z,12.70
2024-04-18T02:51:33.487Z,11.20
2024-04-18T02:52:47.917Z,13.70
2024-04-18T02:53:50.022Z,13.00
2024-04-18T02:54:52.091Z,11.10
2024-04-18T02:55:54.652Z,10.10
2024-04-18T02:56:59.040Z,10.60
2024-04-18T02:58:01.343Z,11.60
2024-04-18T02:59:03.354Z,12.70
2024-04-18T03:00:08.031Z,11.70
2024-04-18T03:01:10.400Z,12.70
2024-04-18T03:02:14.112Z,11.00
2024-04-18T03:03:16.299Z,11.60
2024-04-18T03:04:37.188Z,12.30
2024-04-18T03:05:39.243Z,12.50
2024-04-18T03:06:41.486Z,12.60
2024-04-18T03:07:46.776Z,13.80
2024-04-18T03:08:49.310Z,12.80
2024-04-18T03:09:51.819Z,13.20
2024-04-18T03:11:03.034Z,10.90
2024-04-18T03:12:11.629Z,11.30
2024-04-18T03:13:14.023Z,11.00
2024-04-18T03:14:25.073Z,11.50
2024-04-18T03:15:29.304Z,12.00
2024-04-18T03:16:50.262Z,12.10
2024-04-18T03:17:55.552Z,12.30
2024-04-18T03:19:12.387Z,12.20
2024-04-18T03:20:16.454Z,14.90
2024-04-18T03:21:20.482Z,19.70
2024-04-18T03:22:22.828Z,18.80
2024-04-18T03:23:27.182Z,17.30
2024-04-18T03:24:38.406Z,19.90
2024-04-18T03:25:40.675Z,19.60
2024-04-18T03:26:42.937Z,18.10
2024-04-18T03:27:45.486Z,18.60
2024-04-18T03:28:47.988Z,19.80
2024-04-18T03:29:50.250Z,16.80
2024-04-18T03:30:54.558Z,17.80
2024-04-18T03:31:56.636Z,20.10
2024-04-18T03:33:00.956Z,20.80
2024-04-18T03:34:05.019Z,18.70
2024-04-18T03:35:09.066Z,17.70
2024-04-18T03:36:15.859Z,17.00
2024-04-18T03:37:18.062Z,14.90
2024-04-18T03:38:20.259Z,16.80
2024-04-18T03:39:22.488Z,14.90
2024-04-18T03:40:24.857Z,15.00
2024-04-18T03:41:39.018Z,14.70
2024-04-18T03:42:49.396Z,11.90
2024-04-18T03:43:51.608Z,14.70
2024-04-18T03:44:54.532Z,14.60
2024-04-18T03:46:00.855Z,15.30
2024-04-18T03:47:03.223Z,16.40
2024-04-18T03:48:11.235Z,13.90
2024-04-18T03:49:19.847Z,11.70
2024-04-18T03:50:22.398Z,11.90
2024-04-18T03:51:24.687Z,12.60
2024-04-18T03:52:41.080Z,11.30
2024-04-18T03:53:57.508Z,11.40
2024-04-18T03:55:02.963Z,11.70
2024-04-18T03:56:07.309Z,12.50
2024-04-18T03:57:09.622Z,13.50
2024-04-18T03:58:11.994Z,13.20
2024-04-18T03:59:23.099Z,11.40
2024-04-18T04:00:25.448Z,12.80
2024-04-18T04:01:27.818Z,13.40
2024-04-18T04:02:32.428Z,13.20
2024-04-18T04:03:34.834Z,11.60
2024-04-18T04:04:37.245Z,12.50
2024-04-18T04:05:39.483Z,15.60
2024-04-18T04:06:41.900Z,14.60
2024-04-18T04:07:44.003Z,16.40
2024-04-18T04:08:48.714Z,13.90
2024-04-18T04:09:51.132Z,11.36
2024-04-18T04:10:53.432Z,12.80
2024-04-18T04:11:55.815Z,14.40
2024-04-18T04:12:58.185Z,15.70
2024-04-18T04:14:02.428Z,2.70
2024-04-18T04:15:07.122Z,15.80
2024-04-18T04:16:09.392Z,16.45
2024-04-18T04:17:14.527Z,14.00
2024-04-18T04:18:17.369Z,13.80
2024-04-18T04:19:19.735Z,15.00
2024-04-18T04:20:25.561Z,10.10
2024-04-18T04:21:27.880Z,14.50
2024-04-18T04:22:33.030Z,11.80
2024-04-18T04:23:36.507Z,13.40
2024-04-18T04:24:38.825Z,13.70
2024-04-18T04:25:56.479Z,12.40
2024-04-18T04:26:58.680Z,12.30
2024-04-18T04:28:01.014Z,11.00
2024-04-18T04:29:03.382Z,11.50
2024-04-18T04:30:07.287Z,11.70
2024-04-18T04:31:09.694Z,13.30
2024-04-18T04:32:20.248Z,13.80
2024-04-18T04:33:23.043Z,14.00
2024-04-18T04:34:25.385Z,13.70
2024-04-18T04:35:27.608Z,13.40
2024-04-18T04:36:30.062Z,13.30
2024-04-18T04:37:32.377Z,14.80
2024-04-18T04:38:34.584Z,13.30
2024-04-18T04:39:36.903Z,13.50
2024-04-18T04:40:54.433Z,13.60
2024-04-18T04:41:56.749Z,16.80
2024-04-18T04:43:00.587Z,17.20
2024-04-18T04:44:03.054Z,15.10
2024-04-18T04:45:07.370Z,13.60
2024-04-18T04:46:09.516Z,12.10
2024-04-18T04:47:11.856Z,13.80
2024-04-18T04:48:16.084Z,14.40
2024-04-18T04:49:38.592Z,12.50
2024-04-18T04:50:43.042Z,13.90
2024-04-18T04:51:48.335Z,11.90
2024-04-18T04:52:52.603Z,14.50
2024-04-18T04:53:54.984Z,13.00
2024-04-18T04:55:04.320Z,13.20
2024-04-18T04:56:08.226Z,14.00
2024-04-18T04:57:11.156Z,12.90
2024-04-18T04:58:13.260Z,14.91
2024-04-18T04:59:15.587Z,9.00
2024-04-18T05:00:19.746Z,13.70
2024-04-18T05:01:35.822Z,10.30
2024-04-18T05:02:40.645Z,19.90
2024-04-18T05:03:44.206Z,18.30
2024-04-18T05:05:01.816Z,17.80
2024-04-18T05:06:07.064Z,14.60
2024-04-18T05:07:12.654Z,11.70
2024-04-18T05:08:14.908Z,12.00
2024-04-18T05:09:17.614Z,12.50
2024-04-18T05:10:20.351Z,13.40
2024-04-18T05:11:22.695Z,14.20
2024-04-18T05:12:25.010Z,16.70
2024-04-18T05:13:27.356Z,13.20
2024-04-18T05:14:31.376Z,16.80
2024-04-18T05:15:55.546Z,14.00
2024-04-18T05:17:06.917Z,10.30
2024-04-18T05:18:09.695Z,14.10
2024-04-18T05:19:12.251Z,11.20
2024-04-18T05:20:14.733Z,8.40
2024-04-18T05:21:16.884Z,9.20
2024-04-18T05:22:37.747Z,9.70
2024-04-18T05:23:39.876Z,10.80
2024-04-18T05:24:42.188Z,12.50
2024-04-18T05:25:44.576Z,12.10
2024-04-18T05:26:55.685Z,12.20
2024-04-18T05:27:58.255Z,12.40
2024-04-18T05:29:09.688Z,9.80
2024-04-18T05:30:11.989Z,9.09
2024-04-18T05:31:14.305Z,10.50
2024-04-18T05:32:16.506Z,9.10
2024-04-18T05:33:37.982Z,8.10
2024-04-18T05:34:40.558Z,11.91
2024-04-18T05:35:42.914Z,10.80
2024-04-18T05:36:45.525Z,8.10
2024-04-18T05:37:47.857Z,10.82
2024-04-18T05:38:50.228Z,9.10
2024-04-18T05:39:52.973Z,12.50
2024-04-18T05:40:55.747Z,11.50
2024-04-18T05:41:59.861Z,10.60
2024-04-18T05:43:07.709Z,10.50
2024-04-18T05:44:24.495Z,9.40
2024-04-18T05:45:26.826Z,8.40
2024-04-18T05:46:38.334Z,9.60
2024-04-18T05:47:40.647Z,11.20
2024-04-18T05:48:42.857Z,9.70
2024-04-18T05:49:45.248Z,12.40
2024-04-18T05:50:47.564Z,10.90
2024-04-18T05:51:58.825Z,8.40
2024-04-18T05:53:07.095Z,9.00
2024-04-18T05:54:20.566Z,11.30
2024-04-18T05:55:41.601Z,9.50
2024-04-18T05:56:43.859Z,13.10
2024-04-18T05:57:46.117Z,11.80
2024-04-18T05:59:06.855Z,8.80
2024-04-18T06:00:10.672Z,11.70
2024-04-18T06:01:15.003Z,12.00
2024-04-18T06:02:17.526Z,10.40
2024-04-18T06:03:19.926Z,9.90
2024-04-18T06:04:22.219Z,10.60
2024-04-18T06:05:26.308Z,8.50
2024-04-18T06:06:47.172Z,8.40
2024-04-18T06:07:55.381Z,9.30
2024-04-18T06:08:57.643Z,9.70
2024-04-18T06:09:59.938Z,9.70
2024-04-18T06:11:02.067Z,8.40
2024-04-18T06:12:04.901Z,10.20
2024-04-18T06:13:07.145Z,10.90
2024-04-18T06:14:12.362Z,8.80
2024-04-18T06:15:16.477Z,8.60
2024-04-18T06:16:19.854Z,9.40
2024-04-18T06:17:25.208Z,12.30
2024-04-18T06:18:32.021Z,7.50
2024-04-18T06:19:34.794Z,11.30
2024-04-18T06:20:41.991Z,10.10
2024-04-18T06:21:44.845Z,10.10
2024-04-18T06:22:47.264Z,10.60
2024-04-18T06:24:04.418Z,9.60
2024-04-18T06:25:07.599Z,6.50
2024-04-18T06:26:10.601Z,10.50
2024-04-18T06:27:13.127Z,7.73
2024-04-18T06:28:15.672Z,7.90
2024-04-18T06:29:18.192Z,8.70
2024-04-18T06:30:22.481Z,9.20
2024-04-18T06:31:26.850Z,11.10
2024-04-18T06:32:30.424Z,10.50
2024-04-18T06:33:33.688Z,10.90
2024-04-18T06:34:36.751Z,10.00
2024-04-18T06:35:41.170Z,10.70
2024-04-18T06:36:44.429Z,9.60
2024-04-18T06:37:50.351Z,9.50
2024-04-18T06:38:52.989Z,10.70
2024-04-18T06:39:58.446Z,10.70
2024-04-18T06:41:00.904Z,9.00
2024-04-18T06:42:06.221Z,7.30
2024-04-18T06:43:09.253Z,8.20
2024-04-18T06:44:11.998Z,7.55
2024-04-18T06:45:14.861Z,7.91
2024-04-18T06:46:17.632Z,8.91
2024-04-18T06:47:20.100Z,8.10
2024-04-18T06:48:41.545Z,8.00
2024-04-18T06:49:44.439Z,7.73
2024-04-18T06:50:48.075Z,8.30
2024-04-18T06:51:50.781Z,7.50
2024-04-18T06:52:55.137Z,6.30
2024-04-18T06:53:57.616Z,7.50
2024-04-18T06:55:02.314Z,8.00
2024-04-18T06:56:22.805Z,7.40
2024-04-18T06:57:27.564Z,5.50
2024-04-18T06:58:29.994Z,6.10
2024-04-18T06:59:34.529Z,7.10
2024-04-18T07:00:37.329Z,6.90
2024-04-18T07:01:39.900Z,8.27
2024-04-18T07:02:44.987Z,6.60
2024-04-18T07:04:06.190Z,8.30
2024-04-18T07:05:08.913Z,9.00
2024-04-18T07:06:13.463Z,9.60
2024-04-18T07:07:17.811Z,8.80
2024-04-18T07:08:20.353Z,8.30
2024-04-18T07:09:23.150Z,9.80
2024-04-18T07:10:27.621Z,12.30
2024-04-18T07:11:30.415Z,8.20
2024-04-18T07:12:32.908Z,14.40
2024-04-18T07:13:53.380Z,13.10
2024-04-18T07:15:08.321Z,8.80
2024-04-18T07:16:19.565Z,6.80
2024-04-18T07:17:31.205Z,7.10
2024-04-18T07:18:41.009Z,7.60
2024-04-18T07:19:43.755Z,6.55
2024-04-18T07:20:48.273Z,8.70
2024-04-18T07:21:51.289Z,7.90
2024-04-18T07:22:53.894Z,7.50
2024-04-18T07:24:01.623Z,9.10
2024-04-18T07:25:19.614Z,7.90
2024-04-18T07:26:22.626Z,7.60
2024-04-18T07:27:25.017Z,8.40
2024-04-18T07:28:27.870Z,7.60
2024-04-18T07:29:30.662Z,7.36
2024-04-18T07:30:33.609Z,8.60
2024-04-18T07:31:36.786Z,8.27
2024-04-18T07:32:49.275Z,8.00
2024-04-18T07:33:52.294Z,7.30
2024-04-18T07:34:54.936Z,8.55
2024-04-18T07:35:59.451Z,8.20
2024-04-18T07:37:01.948Z,7.82
2024-04-18T07:38:05.517Z,0.40
2024-04-18T07:39:08.176Z,6.80
2024-04-18T07:40:11.071Z,5.82
2024-04-18T07:41:13.923Z,6.00
2024-04-18T07:42:16.667Z,7.60
2024-04-18T07:43:21.242Z,6.20
2024-04-18T07:44:25.135Z,6.60
2024-04-18T07:45:28.340Z,8.30
2024-04-18T07:46:33.373Z,8.60
2024-04-18T07:47:36.082Z,8.50
2024-04-18T07:48:39.038Z,6.09
2024-04-18T07:49:44.126Z,8.00
2024-04-18T07:50:46.838Z,8.20
2024-04-18T07:51:49.992Z,9.00
2024-04-18T07:52:57.196Z,10.00
2024-04-18T07:53:59.857Z,12.00
2024-04-18T07:55:04.468Z,11.90
2024-04-18T07:56:08.359Z,12.60
2024-04-18T07:57:14.916Z,14.60
2024-04-18T07:58:18.474Z,14.60
2024-04-18T07:59:21.865Z,15.30
2024-04-18T08:00:26.291Z,14.10
2024-04-18T08:01:31.003Z,11.40
2024-04-18T08:02:35.694Z,11.10
2024-04-18T08:03:40.539Z,12.10
2024-04-18T08:04:53.274Z,1.40
2024-04-18T08:05:50.233Z,7.70
2024-04-18T08:06:54.772Z,7.10
2024-04-18T08:07:58.665Z,7.80
2024-04-18T08:09:04.217Z,8.00
2024-04-18T08:10:09.136Z,9.70
2024-04-18T08:11:39.869Z,7.70
2024-04-18T08:12:24.327Z,5.20
2024-04-18T08:13:22.742Z,7.60
2024-04-18T08:14:27.541Z,8.60
2024-04-18T08:16:32.703Z,6.00
2024-04-18T08:17:35.329Z,7.10
2024-04-18T08:18:37.765Z,7.90
2024-04-18T08:19:40.129Z,6.40
2024-04-18T08:20:43.661Z,13.60
2024-04-18T08:21:46.137Z,11.90
2024-04-18T08:22:48.466Z,10.50
2024-04-18T08:23:50.657Z,10.60
2024-04-18T08:24:53.351Z,13.60
2024-04-18T08:25:55.847Z,19.00
2024-04-18T08:26:58.635Z,17.70
2024-04-18T08:28:00.829Z,16.40
2024-04-18T08:29:03.392Z,20.10
2024-04-18T08:30:06.636Z,22.50
2024-04-18T08:31:10.987Z,16.80
2024-04-18T08:32:13.460Z,10.70
2024-04-18T08:33:15.998Z,10.70
2024-04-18T08:34:19.735Z,9.82
2024-04-18T08:35:23.529Z,12.20
2024-04-18T08:36:26.182Z,10.36
2024-04-18T08:37:29.671Z,9.40
2024-04-18T08:38:32.195Z,9.10
2024-04-18T08:39:35.341Z,8.20
2024-04-18T08:40:38.205Z,6.70
2024-04-18T08:41:44.050Z,5.80
2024-04-18T08:42:46.101Z,5.70
2024-04-18T08:43:52.318Z,5.10
2024-04-18T08:44:53.484Z,5.50
2024-04-18T08:45:59.526Z,8.82
2024-04-18T08:47:02.129Z,7.30
2024-04-18T08:48:06.261Z,7.60
2024-04-18T08:49:09.094Z,7.70
2024-04-18T08:50:13.444Z,9.70
2024-04-18T08:51:17.036Z,8.80
2024-04-18T08:52:19.286Z,8.60
2024-04-18T08:53:21.721Z,6.40
2024-04-18T08:54:24.053Z,5.00
2024-04-18T08:55:30.337Z,8.20
2024-04-18T08:56:34.167Z,5.40
2024-04-18T08:57:44.745Z,7.10
2024-04-18T08:58:47.086Z,6.30
2024-04-18T08:59:52.105Z,4.50
2024-04-18T09:00:55.452Z,7.50
2024-04-18T09:01:57.834Z,16.30
2024-04-18T09:03:00.066Z,18.10
2024-04-18T09:04:02.583Z,17.40
2024-04-18T09:05:05.231Z,24.20
2024-04-18T09:06:08.719Z,26.30
2024-04-18T09:07:11.061Z,35.30
2024-04-18T09:08:13.280Z,33.10
2024-04-18T09:09:15.843Z,33.90
2024-04-18T09:10:18.411Z,28.70
2024-04-18T09:11:22.625Z,20.80
2024-04-18T09:12:24.930Z,22.10
2024-04-18T09:13:29.794Z,23.00
2024-04-18T09:14:34.739Z,21.10
2024-04-18T09:15:37.441Z,18.00
2024-04-18T09:16:39.919Z,12.40
2024-04-18T09:17:42.220Z,10.10
2024-04-18T09:18:45.331Z,10.30
2024-04-18T09:19:48.866Z,6.60
2024-04-18T09:20:51.731Z,5.50
2024-04-18T09:21:54.177Z,5.82
2024-04-18T09:22:56.578Z,4.50
2024-04-18T09:23:59.041Z,5.30
2024-04-18T09:25:01.805Z,3.18
2024-04-18T09:26:04.566Z,5.73
2024-04-18T09:27:06.854Z,5.80
2024-04-18T09:28:09.026Z,6.20
2024-04-18T09:29:13.584Z,5.60
2024-04-18T09:30:16.438Z,5.80
2024-04-18T09:31:21.590Z,6.00
2024-04-18T09:32:23.643Z,5.00
2024-04-18T09:33:26.272Z,5.45
2024-04-18T09:34:30.489Z,7.50
2024-04-18T09:35:34.633Z,7.50
2024-04-18T09:36:39.056Z,7.80
2024-04-18T09:37:44.782Z,5.80
2024-04-18T09:38:50.198Z,7.30
2024-04-18T09:39:54.925Z,6.00
2024-04-18T09:41:06.860Z,6.90
2024-04-18T09:42:21.727Z,6.50
2024-04-18T09:43:30.533Z,5.10
2024-04-18T09:44:34.357Z,6.90
2024-04-18T09:45:42.940Z,6.10
2024-04-18T09:46:46.589Z,7.20
2024-04-18T09:47:48.977Z,3.20
2024-04-18T09:48:53.195Z,6.40
2024-04-18T09:49:55.917Z,6.00
2024-04-18T09:50:59.724Z,6.82
2024-04-18T09:52:02.232Z,6.20
2024-04-18T09:53:05.245Z,5.90
2024-04-18T09:54:08.086Z,4.70
2024-04-18T09:55:11.917Z,6.45
2024-04-18T09:56:14.273Z,7.00
2024-04-18T09:57:16.977Z,0.60
2024-04-18T09:58:19.254Z,5.70
2024-04-18T09:59:21.733Z,5.50
2024-04-18T10:00:24.644Z,4.60
2024-04-18T10:01:26.980Z,5.09
2024-04-18T10:02:29.536Z,6.90
2024-04-18T10:03:31.994Z,9.10
2024-04-18T10:04:34.758Z,10.90
2024-04-18T10:05:37.685Z,7.50
2024-04-18T10:06:41.735Z,7.20
2024-04-18T10:07:44.922Z,7.20
2024-04-18T10:08:50.074Z,9.00
2024-04-18T10:09:53.614Z,7.00
2024-04-18T10:10:58.330Z,17.70
2024-04-18T10:12:01.232Z,13.00
2024-04-18T10:13:04.741Z,17.20
2024-04-18T10:14:08.111Z,15.80
2024-04-18T10:15:10.304Z,17.60
2024-04-18T10:16:14.522Z,23.80
2024-04-18T10:17:24.146Z,27.20
2024-04-18T10:18:30.394Z,17.60
2024-04-18T10:19:32.928Z,23.50
2024-04-18T10:20:35.337Z,13.70
2024-04-18T10:21:43.349Z,12.00
2024-04-18T10:22:47.191Z,9.90
2024-04-18T10:23:55.056Z,13.90
2024-04-18T10:24:57.585Z,9.50
2024-04-18T10:25:59.882Z,11.90
2024-04-18T10:27:10.094Z,11.10
2024-04-18T10:28:25.132Z,8.70
2024-04-18T10:29:27.912Z,5.70
2024-04-18T10:30:31.788Z,5.73
2024-04-18T10:31:37.839Z,5.40
2024-04-18T10:32:42.301Z,5.90
2024-04-18T10:33:45.255Z,5.70
2024-04-18T10:34:48.956Z,6.10
2024-04-18T10:35:52.669Z,7.00
2024-04-18T10:36:57.179Z,8.50
2024-04-18T10:38:00.273Z,6.90
2024-04-18T10:39:02.747Z,5.20
2024-04-18T10:40:06.467Z,5.00
2024-04-18T10:41:11.333Z,8.60
2024-04-18T10:42:14.613Z,15.10
2024-04-18T10:43:19.973Z,7.60
2024-04-18T10:44:21.272Z,5.60
2024-04-18T10:45:24.495Z,3.90
2024-04-18T10:46:26.839Z,4.00
2024-04-18T10:47:31.205Z,0.80
2024-04-18T10:48:35.576Z,4.00
2024-04-18T10:49:38.168Z,4.60
2024-04-18T10:50:40.932Z,5.80
2024-04-18T10:51:43.634Z,4.40
2024-04-18T10:52:47.838Z,4.40
2024-04-18T10:53:54.957Z,5.10
2024-04-18T10:54:57.481Z,5.00
2024-04-18T10:55:59.815Z,5.50
2024-04-18T10:57:02.159Z,5.70
2024-04-18T10:58:04.737Z,5.70
2024-04-18T10:59:10.399Z,8.30
2024-04-18T11:01:18.370Z,12.50
2024-04-18T11:02:20.643Z,15.80
2024-04-18T11:03:23.230Z,17.60
2024-04-18T11:04:26.421Z,15.90
2024-04-18T11:05:29.980Z,15.00
2024-04-18T11:06:32.235Z,10.80
2024-04-18T11:07:34.756Z,11.20
2024-04-18T11:08:37.048Z,8.30
2024-04-18T11:09:39.596Z,8.60
2024-04-18T11:10:42.683Z,4.30
2024-04-18T11:11:44.993Z,5.80
2024-04-18T11:12:47.626Z,4.90
2024-04-18T11:13:50.466Z,4.00
2024-04-18T11:14:52.868Z,5.73
2024-04-18T11:15:54.978Z,6.20
2024-04-18T11:16:58.491Z,8.00
2024-04-18T11:18:06.079Z,7.00
2024-04-18T11:19:09.083Z,5.90
2024-04-18T11:20:11.816Z,7.00
2024-04-18T11:21:17.390Z,4.90
2024-04-18T11:22:19.665Z,5.40
2024-04-18T11:23:35.303Z,6.30
2024-04-18T11:24:29.691Z,5.00
2024-04-18T11:25:34.368Z,4.50
2024-04-18T11:26:40.225Z,4.20
2024-04-18T11:27:43.537Z,4.80
2024-04-18T11:28:49.386Z,3.60
2024-04-18T11:29:51.606Z,4.30
2024-04-18T11:30:54.150Z,4.00
2024-04-18T11:32:10.584Z,5.40
2024-04-18T11:33:13.084Z,6.00
2024-04-18T11:34:17.785Z,9.60
2024-04-18T11:35:20.303Z,7.90
2024-04-18T11:36:22.788Z,6.00
2024-04-18T11:37:25.263Z,6.00
2024-04-18T11:38:30.679Z,4.10
2024-04-18T11:39:32.817Z,4.40
2024-04-18T11:40:35.195Z,6.00
2024-04-18T11:41:37.973Z,5.50
2024-04-18T11:42:40.350Z,6.00
2024-04-18T11:43:42.643Z,7.50
2024-04-18T11:44:44.840Z,5.90
2024-04-18T11:45:47.229Z,7.30
2024-04-18T11:46:49.725Z,9.00
2024-04-18T11:48:00.861Z,9.50
2024-04-18T11:49:03.647Z,7.20
2024-04-18T11:50:06.932Z,7.50
2024-04-18T11:51:09.242Z,8.91
2024-04-18T11:52:11.772Z,7.30
2024-04-18T11:53:15.888Z,5.40
2024-04-18T11:54:18.091Z,5.70
2024-04-18T11:55:23.178Z,6.20
2024-04-18T11:56:25.521Z,3.50
2024-04-18T11:57:27.933Z,5.80
2024-04-18T11:58:30.169Z,4.60
2024-04-18T11:59:32.752Z,4.10
2024-04-18T12:00:35.184Z,4.70
2024-04-18T12:01:43.783Z,3.10
2024-04-18T12:02:55.336Z,3.90
2024-04-18T12:03:57.842Z,2.30
2024-04-18T12:05:08.287Z,3.10
2024-04-18T12:06:12.454Z,4.00
2024-04-18T12:07:16.630Z,4.00
2024-04-18T12:08:20.014Z,4.50
2024-04-18T12:09:22.392Z,5.00
2024-04-18T12:10:26.054Z,3.80
2024-04-18T12:11:30.944Z,3.20
2024-04-18T12:12:46.160Z,3.50
2024-04-18T12:13:57.468Z,4.30
2024-04-18T12:14:59.668Z,3.20
2024-04-18T12:16:02.232Z,3.50
2024-04-18T12:17:04.991Z,3.40
2024-04-18T12:18:19.091Z,3.60
2024-04-18T12:19:24.363Z,4.00
2024-04-18T12:20:26.629Z,3.80
2024-04-18T12:21:29.008Z,2.70
2024-04-18T12:22:31.561Z,4.70
2024-04-18T12:23:49.162Z,3.50
2024-04-18T12:24:51.473Z,3.60
2024-04-18T12:25:53.772Z,4.00
2024-04-18T12:26:55.981Z,3.50
2024-04-18T12:27:58.346Z,3.50
2024-04-18T12:29:06.550Z,3.00
2024-04-18T12:30:12.721Z,3.00
2024-04-18T12:31:16.377Z,4.20
2024-04-18T12:32:26.841Z,2.30
2024-04-18T12:33:29.292Z,3.60
2024-04-18T12:34:31.603Z,3.20
2024-04-18T12:35:39.555Z,3.30
2024-04-18T12:36:41.947Z,5.00
2024-04-18T12:37:46.087Z,4.70
2024-04-18T12:38:48.464Z,3.10
2024-04-18T12:39:50.848Z,0.20
2024-04-18T12:41:04.697Z,2.80
2024-04-18T12:42:06.470Z,3.40
2024-04-18T12:43:11.312Z,3.30
2024-04-18T12:44:30.096Z,0.20
2024-04-18T12:45:36.489Z,3.90
2024-04-18T12:46:39.255Z,3.40
2024-04-18T12:47:43.704Z,3.30
2024-04-18T12:48:48.158Z,3.50
2024-04-18T12:49:50.503Z,3.20
2024-04-18T12:50:52.992Z,2.90
2024-04-18T12:51:57.198Z,3.40
2024-04-18T12:53:00.746Z,3.30
2024-04-18T12:54:03.235Z,1.80
2024-04-18T12:55:25.801Z,2.40
2024-04-18T12:56:28.057Z,3.00
2024-04-18T12:57:32.353Z,3.00
2024-04-18T12:58:41.048Z,3.00
2024-04-18T12:59:43.607Z,2.55
2024-04-18T13:00:47.733Z,3.30
2024-04-18T13:01:52.244Z,3.70
2024-04-18T13:02:54.521Z,3.30
2024-04-18T13:04:12.329Z,6.00
2024-04-18T13:05:23.955Z,4.40
2024-04-18T13:06:28.485Z,6.45
2024-04-18T13:07:31.427Z,3.70
2024-04-18T13:08:56.159Z,4.90
2024-04-18T13:10:17.958Z,4.30
2024-04-18T13:11:20.890Z,5.50
2024-04-18T13:12:25.111Z,4.60
2024-04-18T13:13:33.385Z,4.50
2024-04-18T13:14:47.853Z,0.40
2024-04-18T13:15:53.882Z,3.00
2024-04-18T13:16:54.577Z,3.60
2024-04-18T13:17:58.963Z,2.60
2024-04-18T13:19:01.268Z,3.20
2024-04-18T13:20:09.332Z,4.60
2024-04-18T13:21:11.563Z,3.00
2024-04-18T13:22:14.413Z,3.20
2024-04-18T13:23:16.742Z,2.55
2024-04-18T13:24:19.615Z,3.00
2024-04-18T13:25:28.436Z,3.30
2024-04-18T13:26:32.702Z,1.70
2024-04-18T13:27:37.164Z,4.00
2024-04-18T13:28:39.646Z,4.60
2024-04-18T13:29:50.966Z,4.30
2024-04-18T13:31:08.484Z,4.00
2024-04-18T13:32:22.799Z,4.20
2024-04-18T13:33:25.121Z,4.00
2024-04-18T13:34:27.659Z,4.70
2024-04-18T13:35:29.978Z,4.30
2024-04-18T13:36:32.455Z,3.10
2024-04-18T13:37:34.724Z,2.40
2024-04-18T13:38:51.872Z,3.80
2024-04-18T13:39:57.800Z,3.80
2024-04-18T13:41:00.185Z,4.20
2024-04-18T13:42:04.555Z,4.20
2024-04-18T13:43:08.950Z,5.40
2024-04-18T13:44:11.169Z,3.90
2024-04-18T13:45:15.433Z,3.40
2024-04-18T13:46:29.945Z,2.80
2024-04-18T13:47:34.178Z,2.70
2024-04-18T13:48:36.644Z,2.00
2024-04-18T13:49:38.943Z,2.00
2024-04-18T13:50:41.596Z,2.40
2024-04-18T13:51:43.819Z,3.10
2024-04-18T13:52:47.799Z,2.70
2024-04-18T13:53:49.980Z,2.50
2024-04-18T13:54:58.284Z,2.90
2024-04-18T13:56:06.516Z,2.70
2024-04-18T13:57:08.708Z,2.80
2024-04-18T13:58:19.661Z,2.30
2024-04-18T13:59:34.164Z,2.60
2024-04-18T14:00:36.656Z,2.20
2024-04-18T14:01:57.956Z,1.50
2024-04-18T14:03:19.432Z,1.60
2024-04-18T14:04:40.343Z,2.60
2024-04-18T14:05:55.369Z,2.10
2024-04-18T14:06:59.435Z,2.40
2024-04-18T14:08:03.821Z,1.70
2024-04-18T14:09:07.968Z,2.20
2024-04-18T14:10:18.952Z,2.20
2024-04-18T14:11:39.670Z,2.20
2024-04-18T14:12:41.811Z,2.60
2024-04-18T14:13:45.980Z,3.60
2024-04-18T14:14:50.130Z,4.20
2024-04-18T14:15:55.130Z,2.50
2024-04-18T14:17:15.806Z,2.80